Atwood, Alabama
Current Conditions -  °F | °C
As of 11:56 AM on Thursday 23 Oct 2014 (Local Time) from K1M4 Reporting Station
Clear Clear  
Wind Chill: 62°   Ceiling: Unl
Heat Index: 62°   Visibility: 9mi
Dew Point: 44°   Wind: 3mph
Humidity: 52%   Direction: NA
Pressure: 30.19"   Gusts: NA
Location:  34.3479°N, 87.9692°W
Report Text: K1M4 231656Z AUTO VRB03KT 9SM CLR 17/07 A3019 RMK AO2 T01660066 SLP233
Loading
Personal Weather Stations






























Interactive Weather Map New forecast layout! Learn more

10-Day Weather Forecast

Advertisements
Track Severe Weather on mobile